Time;durP1;ratioP1;P1;durP2;ratioP2;P2;SDS_P1;SDS_P2;PMS_P1;PMS_P2;Temp;Humidity;BMP_temperature;BMP_pressure;BME280_temperature;BME280_humidity;BME280_pressure;Samples;Min_cycle;Max_cycle;Signal;HPM_P1;HPM_P2
2021/06/11 00:00:43;;;;;;;14.38;12.73;;;19.60;99.90;;;;;;5096047;28;20100;-44
2021/06/11 00:03:09;;;;;;;17.77;13.65;;;19.60;99.90;;;;;;5095918;28;20028;-45
2021/06/11 00:05:35;;;;;;;16.00;12.98;;;19.60;99.90;;;;;;5077160;28;20043;-47
2021/06/11 00:08:01;;;;;;;14.73;13.15;;;19.60;99.90;;;;;;5077257;28;20123;-44
2021/06/11 00:10:27;;;;;;;15.27;13.70;;;19.60;99.90;;;;;;5076882;28;20126;-46
2021/06/11 00:12:53;;;;;;;13.98;12.27;;;19.50;99.90;;;;;;5096158;28;20062;-45
2021/06/11 00:15:19;;;;;;;14.13;12.63;;;19.50;99.90;;;;;;5076931;28;20148;-45
2021/06/11 00:17:45;;;;;;;14.98;12.77;;;19.50;99.90;;;;;;5076795;28;20071;-45
2021/06/11 00:20:11;;;;;;;13.73;12.00;;;19.50;99.90;;;;;;5095556;28;20486;-45
2021/06/11 00:22:39;;;;;;;13.05;11.68;;;19.50;99.90;;;;;;5077007;28;20040;-45
2021/06/11 00:25:11;;;;;;;11.70;10.50;;;19.50;99.90;;;;;;5095918;28;20051;-44
2021/06/11 00:27:37;;;;;;;11.95;10.65;;;19.50;99.90;;;;;;4993934;28;20036;-45
2021/06/11 00:30:05;;;;;;;18.40;12.20;;;19.50;99.90;;;;;;5095488;28;20536;-44
2021/06/11 00:32:30;;;;;;;13.88;12.30;;;19.20;99.90;;;;;;5042968;28;20509;-44
2021/06/11 00:34:56;;;;;;;18.08;11.52;;;19.30;99.90;;;;;;5075914;28;20127;-45
2021/06/11 00:37:22;;;;;;;12.68;11.20;;;19.20;99.90;;;;;;5076337;28;20063;-45
2021/06/11 00:39:48;;;;;;;13.27;11.88;;;19.20;99.90;;;;;;5095419;28;20544;-44
2021/06/11 00:42:13;;;;;;;13.65;12.25;;;19.20;99.90;;;;;;5094814;28;20081;-44
2021/06/11 00:44:39;;;;;;;13.55;12.15;;;19.20;99.90;;;;;;5095537;28;20035;-45
2021/06/11 00:47:14;;;;;;;16.67;12.30;;;19.20;99.90;;;;;;5095346;28;20034;-44
2021/06/11 00:49:39;;;;;;;13.90;11.77;;;19.20;99.90;;;;;;4998087;28;20065;-45
2021/06/11 00:52:08;;;;;;;15.73;12.75;;;19.20;99.90;;;;;;5095366;28;20395;-44
2021/06/11 00:54:34;;;;;;;15.32;12.73;;;19.20;99.90;;;;;;5076512;28;20036;-44
2021/06/11 00:57:00;;;;;;;18.40;13.57;;;19.20;99.90;;;;;;5042398;28;20123;-45
2021/06/11 00:59:27;;;;;;;16.55;14.18;;;19.20;99.90;;;;;;4993193;28;20456;-44
2021/06/11 01:01:52;;;;;;;16.92;14.93;;;19.10;99.90;;;;;;5095088;28;20077;-45
2021/06/11 01:04:18;;;;;;;20.92;18.05;;;19.00;99.90;;;;;;5075783;28;20040;-45
2021/06/11 01:06:45;;;;;;;21.35;19.17;;;18.90;99.90;;;;;;5094896;28;20032;-45
2021/06/11 01:09:11;;;;;;;26.58;23.85;;;18.90;99.90;;;;;;5094956;28;20143;-44
2021/06/11 01:11:40;;;;;;;39.67;35.38;;;18.80;99.90;;;;;;5094402;28;20111;-45
2021/06/11 01:14:07;;;;;;;49.80;43.72;;;18.70;99.90;;;;;;5094814;28;20039;-44
2021/06/11 01:16:33;;;;;;;40.13;35.80;;;18.60;99.90;;;;;;5075600;28;20530;-44
2021/06/11 01:19:00;;;;;;;36.65;32.70;;;18.70;99.90;;;;;;5075328;28;20487;-45
2021/06/11 01:21:30;;;;;;;37.08;32.97;;;18.70;99.90;;;;;;5094710;28;20052;-44
2021/06/11 01:24:44;;;;;;;35.38;31.67;;;18.80;99.90;;;;;;5075538;28;20043;-44
2021/06/11 01:27:09;;;;;;;39.67;33.13;;;18.80;99.90;;;;;;5015510;28;20045;-44
2021/06/11 01:29:36;;;;;;;34.20;30.50;;;18.80;99.90;;;;;;5032067;28;20041;-45
2021/06/11 01:32:05;;;;;;;32.53;28.85;;;18.80;99.90;;;;;;5014882;28;20038;-44
2021/06/11 01:34:39;;;;;;;39.22;32.20;;;18.80;99.90;;;;;;5015155;28;20045;-45
2021/06/11 01:37:24;;;;;;;35.70;31.85;;;18.90;99.90;;;;;;5031627;28;20442;-45
2021/06/11 01:39:56;;;;;;;21.67;19.25;;;18.80;99.90;;;;;;5014551;28;20072;-44
2021/06/11 01:42:23;;;;;;;15.55;14.10;;;18.80;99.90;;;;;;5031642;28;20087;-45
2021/06/11 01:44:50;;;;;;;15.48;13.98;;;18.80;99.90;;;;;;5014927;28;20392;-44
2021/06/11 01:47:17;;;;;;;14.55;13.05;;;18.70;99.90;;;;;;4998039;28;20073;-44
2021/06/11 01:49:44;;;;;;;15.57;13.82;;;18.70;99.90;;;;;;5031586;28;20055;-44
2021/06/11 01:52:12;;;;;;;14.65;12.88;;;18.70;99.90;;;;;;5012357;28;20534;-45
2021/06/11 01:54:41;;;;;;;16.38;13.35;;;18.70;99.90;;;;;;5014691;28;20164;-44
2021/06/11 01:57:08;;;;;;;14.32;13.00;;;18.70;99.90;;;;;;5014377;28;20043;-44
2021/06/11 01:59:34;;;;;;;13.60;12.30;;;18.70;99.90;;;;;;5074903;28;20482;-45
2021/06/11 02:02:02;;;;;;;13.57;12.18;;;18.70;99.90;;;;;;5093552;28;20463;-44
2021/06/11 02:04:29;;;;;;;17.23;14.00;;;18.50;99.90;;;;;;5094194;28;20039;-44
2021/06/11 02:06:55;;;;;;;15.07;12.38;;;18.10;99.90;;;;;;5074868;28;20101;-45
2021/06/11 02:09:23;;;;;;;14.25;12.80;;;17.90;99.90;;;;;;5093583;28;20032;-45
2021/06/11 02:11:49;;;;;;;14.02;12.52;;;17.90;99.90;;;;;;5093920;28;20126;-44
2021/06/11 02:14:16;;;;;;;15.20;12.27;;;18.10;99.90;;;;;;5093797;28;20023;-44
2021/06/11 02:16:44;;;;;;;14.73;12.63;;;18.10;99.90;;;;;;5074424;28;20070;-44
2021/06/11 02:19:11;;;;;;;13.07;11.77;;;18.20;99.90;;;;;;5093482;28;20541;-44
2021/06/11 02:21:39;;;;;;;16.13;12.27;;;18.30;99.90;;;;;;5092989;28;20502;-44
2021/06/11 02:24:06;;;;;;;14.80;12.35;;;18.30;99.90;;;;;;5093331;28;20032;-44
2021/06/11 02:26:33;;;;;;;13.35;11.98;;;18.40;99.90;;;;;;5041420;28;20044;-44
2021/06/11 02:28:59;;;;;;;13.73;12.23;;;18.40;99.90;;;;;;5093574;28;20035;-45
2021/06/11 02:31:25;;;;;;;12.88;11.52;;;18.40;99.90;;;;;;5093279;28;20450;-45
2021/06/11 02:33:51;;;;;;;12.82;11.52;;;18.50;99.90;;;;;;5093451;28;20070;-44
2021/06/11 02:36:17;;;;;;;12.68;11.43;;;18.50;99.90;;;;;;5093618;28;20036;-44
2021/06/11 02:38:43;;;;;;;14.43;11.57;;;18.40;99.90;;;;;;5093266;28;20024;-44
2021/06/11 02:41:13;;;;;;;15.50;11.98;;;18.30;99.90;;;;;;5093460;28;20043;-45
2021/06/11 02:43:41;;;;;;;13.77;12.43;;;17.40;99.90;;;;;;5093397;28;20031;-44
2021/06/11 02:46:16;;;;;;;15.10;12.88;;;17.10;99.90;;;;;;5093381;28;20040;-44
2021/06/11 02:48:57;;;;;;;15.05;13.25;;;16.80;99.90;;;;;;5093593;28;20039;-44
2021/06/11 02:51:33;;;;;;;14.18;12.73;;;17.00;99.90;;;;;;5093549;28;20040;-44
2021/06/11 02:54:02;;;;;;;14.85;13.05;;;16.90;99.90;;;;;;5092936;28;20028;-44
2021/06/11 02:56:39;;;;;;;14.73;13.23;;;16.40;99.90;;;;;;5093543;28;20024;-44
2021/06/11 02:59:11;;;;;;;14.60;13.20;;;16.20;99.90;;;;;;5092098;28;20043;-44
2021/06/11 03:01:44;;;;;;;14.50;13.05;;;16.20;99.90;;;;;;5074230;28;20039;-44
2021/06/11 03:04:11;;;;;;;15.85;13.52;;;16.10;99.90;;;;;;5093472;28;20391;-44
2021/06/11 03:06:37;;;;;;;16.85;14.13;;;16.20;99.90;;;;;;5093622;28;20032;-44
2021/06/11 03:09:08;;;;;;;14.52;13.02;;;16.10;99.90;;;;;;5092987;28;20032;-44
2021/06/11 03:11:38;;;;;;;13.93;12.38;;;16.10;99.90;;;;;;5074979;28;21069;-44
2021/06/11 03:14:06;;;;;;;14.48;12.93;;;16.30;99.90;;;;;;5093152;28;20428;-44
2021/06/11 03:16:33;;;;;;;15.00;13.10;;;16.30;99.90;;;;;;5093005;28;20076;-44
2021/06/11 03:19:02;;;;;;;13.23;11.93;;;;;;;;;;5092955;28;20503;-44
2021/06/11 03:21:41;;;;;;;14.48;13.00;;;16.70;99.90;;;;;;5070417;28;20036;-44
2021/06/11 03:24:14;;;;;;;15.50;13.35;;;16.50;99.90;;;;;;5070324;28;20032;-44
2021/06/11 03:26:46;;;;;;;13.63;12.23;;;16.70;99.90;;;;;;5070769;28;20036;-44
2021/06/11 03:29:14;;;;;;;;;;;16.80;99.90;;;;;;5071086;28;20031;-44
2021/06/11 03:31:45;;;;;;;14.45;12.75;;;16.80;99.90;;;;;;5070287;28;19905;-44
2021/06/11 03:34:18;;;;;;;17.37;12.50;;;16.90;99.90;;;;;;5073298;28;20082;-44
2021/06/11 03:36:45;;;;;;;14.55;13.05;;;17.00;99.90;;;;;;5074378;28;20376;-44
2021/06/11 03:39:42;;;;;;;16.10;14.07;;;17.00;99.90;;;;;;5073945;28;20054;-44
2021/06/11 03:42:09;;;;;;;16.95;14.57;;;17.30;99.90;;;;;;4956062;29;20035;-44
2021/06/11 03:44:40;;;;;;;16.25;14.27;;;17.50;99.90;;;;;;4956192;29;20027;-44
2021/06/11 03:47:07;;;;;;;14.25;11.75;;;;;;;;;;4923495;29;20043;-44
2021/06/11 03:49:34;;;;;;;13.63;10.68;;;17.80;99.90;;;;;;4956223;29;20484;-44
2021/06/11 03:52:01;;;;;;;9.10;3.85;;;17.80;99.90;;;;;;4968060;28;20370;-44
2021/06/11 03:54:28;;;;;;;9.90;3.97;;;17.70;99.90;;;;;;4978097;28;20088;-44
2021/06/11 03:56:55;;;;;;;14.00;6.80;;;17.90;99.90;;;;;;4994618;28;20034;-44
2021/06/11 03:59:23;;;;;;;9.43;6.60;;;17.90;99.90;;;;;;4994622;28;20049;-44
2021/06/11 04:01:51;;;;;;;8.88;5.55;;;18.00;99.90;;;;;;4959336;28;20033;-44
2021/06/11 04:04:17;;;;;;;7.72;4.80;;;17.90;99.90;;;;;;5034180;28;20060;-44
2021/06/11 04:06:50;;;;;;;5.40;3.47;;;17.80;99.90;;;;;;5017052;28;20057;-44
2021/06/11 04:09:20;;;;;;;6.22;3.50;;;17.90;99.90;;;;;;5033619;28;20068;-44
2021/06/11 04:12:12;;;;;;;6.90;5.07;;;17.90;99.90;;;;;;5031513;28;20096;-44
2021/06/11 04:14:45;;;;;;;6.43;3.67;;;18.00;99.90;;;;;;5033265;28;20116;-46
2021/06/11 04:17:14;;;;;;;9.82;4.75;;;18.10;99.90;;;;;;5033640;28;20029;-44
2021/06/11 04:19:54;;;;;;;8.27;5.53;;;18.10;99.90;;;;;;5115980;28;20123;-44
2021/06/11 04:22:27;;;;;;;10.05;5.50;;;17.90;99.90;;;;;;5116062;28;20034;-44
2021/06/11 04:24:56;;;;;;;13.45;5.47;;;17.20;99.90;;;;;;5097340;28;20045;-44
2021/06/11 04:27:22;;;;;;;11.63;5.32;;;16.90;99.90;;;;;;5115815;28;20081;-44
2021/06/11 04:29:49;;;;;;;9.77;6.00;;;16.70;99.90;;;;;;5115945;28;20032;-43
2021/06/11 04:32:16;;;;;;;10.55;5.95;;;16.60;99.90;;;;;;5096994;28;20343;-44
2021/06/11 04:34:42;;;;;;;10.98;5.45;;;16.70;99.90;;;;;;5116329;28;20043;-44
2021/06/11 04:37:08;;;;;;;4.95;2.90;;;16.90;99.90;;;;;;5094439;28;20469;-44
2021/06/11 04:39:34;;;;;;;6.78;4.15;;;17.10;99.90;;;;;;5061850;28;20036;-44
2021/06/11 04:41:59;;;;;;;6.50;3.65;;;17.50;99.90;;;;;;5084863;28;20039;-44
2021/06/11 04:44:25;;;;;;;9.43;5.55;;;17.50;99.90;;;;;;5105291;28;20030;-44
2021/06/11 04:46:51;;;;;;;7.32;4.60;;;17.50;99.90;;;;;;5052538;28;20035;-44
2021/06/11 04:49:17;;;;;;;9.82;4.78;;;17.30;99.90;;;;;;5104001;28;20043;-44
2021/06/11 04:51:43;;;;;;;8.20;4.68;;;17.40;99.90;;;;;;5105665;28;20028;-44
2021/06/11 04:54:09;;;;;;;8.20;4.18;;;17.40;99.90;;;;;;5104801;28;20371;-44
2021/06/11 04:56:35;;;;;;;5.75;3.03;;;17.40;99.90;;;;;;5085029;28;20035;-43
2021/06/11 04:59:02;;;;;;;10.27;4.18;;;17.30;99.90;;;;;;5095525;28;20040;-45
2021/06/11 05:01:28;;;;;;;3.80;2.50;;;16.90;99.90;;;;;;5095268;28;20092;-49
2021/06/11 05:03:54;;;;;;;5.18;3.70;;;16.90;99.90;;;;;;5095057;28;20055;-44
2021/06/11 05:06:19;;;;;;;11.35;4.95;;;17.10;99.90;;;;;;5094979;28;20047;-45
2021/06/11 05:08:45;;;;;;;12.50;4.53;;;17.10;99.90;;;;;;5075934;28;20184;-44
2021/06/11 05:11:12;;;;;;;12.60;6.80;;;17.00;99.90;;;;;;5094730;28;20426;-44
2021/06/11 05:13:38;;;;;;;11.48;4.45;;;17.00;99.90;;;;;;5095261;28;20036;-45
2021/06/11 05:16:04;;;;;;;9.55;4.50;;;17.30;99.90;;;;;;5093848;28;20020;-45
2021/06/11 05:18:31;;;;;;;9.82;4.63;;;17.60;99.90;;;;;;5058823;28;20051;-45
2021/06/11 05:20:58;;;;;;;11.80;5.90;;;18.00;99.90;;;;;;5058703;28;20044;-45
2021/06/11 05:23:24;;;;;;;4.68;3.90;;;18.30;99.90;;;;;;5092151;28;20047;-44
2021/06/11 05:25:51;;;;;;;13.90;6.10;;;18.50;99.90;;;;;;5092468;28;20028;-44
2021/06/11 05:28:19;;;;;;;9.57;5.38;;;18.60;99.90;;;;;;5092304;28;20024;-44
2021/06/11 05:30:45;;;;;;;12.43;5.15;;;18.90;99.90;;;;;;5091968;28;20218;-44
2021/06/11 05:33:11;;;;;;;9.93;4.72;;;19.20;99.90;;;;;;5091993;28;20379;-43
2021/06/11 05:35:36;;;;;;;14.05;4.63;;;19.30;99.90;;;;;;5104089;28;20030;-45
2021/06/11 05:38:05;;;;;;;7.13;4.55;;;19.40;99.90;;;;;;5058148;28;20040;-45
2021/06/11 05:40:32;;;;;;;8.15;6.18;;;19.40;99.90;;;;;;5058946;28;20130;-45
2021/06/11 05:42:58;;;;;;;7.15;4.22;;;19.70;99.90;;;;;;5092037;28;20051;-45
2021/06/11 05:45:25;;;;;;;10.20;5.53;;;19.80;99.90;;;;;;5057991;28;20035;-45
2021/06/11 05:47:51;;;;;;;14.52;4.90;;;20.00;99.90;;;;;;5057228;28;20036;-45
2021/06/11 05:50:17;;;;;;;11.13;5.68;;;20.20;99.90;;;;;;5103811;28;20042;-45
2021/06/11 05:52:42;;;;;;;9.05;5.25;;;20.30;99.90;;;;;;5094609;28;20036;-45
2021/06/11 05:55:09;;;;;;;13.73;5.88;;;20.40;99.90;;;;;;5078438;28;20042;-45
2021/06/11 05:57:35;;;;;;;11.40;5.40;;;20.60;99.90;;;;;;5094507;28;20159;-45
2021/06/11 06:00:02;;;;;;;12.98;5.57;;;20.70;99.90;;;;;;5113976;28;20457;-45
2021/06/11 06:02:27;;;;;;;10.13;5.60;;;20.70;99.90;;;;;;5114217;28;20031;-45
2021/06/11 06:04:53;;;;;;;10.63;5.85;;;;;;;;;;5114382;28;20076;-45
2021/06/11 06:07:20;;;;;;;7.38;5.32;;;21.00;99.90;;;;;;5113874;28;20019;-45
2021/06/11 06:09:45;;;;;;;13.10;7.05;;;21.10;99.90;;;;;;5114480;28;20047;-45
2021/06/11 06:12:12;;;;;;;5.80;5.05;;;21.20;99.90;;;;;;5114284;28;20059;-45
2021/06/11 06:14:38;;;;;;;8.70;6.70;;;21.20;99.90;;;;;;5113748;28;20451;-45
2021/06/11 06:17:04;;;;;;;7.78;6.47;;;21.30;99.90;;;;;;5094782;28;20082;-45
2021/06/11 06:19:30;;;;;;;7.70;6.07;;;21.40;99.90;;;;;;5060915;28;20039;-45
2021/06/11 06:21:56;;;;;;;7.93;6.40;;;21.50;99.90;;;;;;5113685;28;20106;-45
2021/06/11 06:24:22;;;;;;;7.55;6.25;;;21.60;99.90;;;;;;5091166;28;20131;-45
2021/06/11 06:26:47;;;;;;;10.40;7.70;;;21.70;99.90;;;;;;5091383;28;20158;-45
2021/06/11 06:29:13;;;;;;;9.10;7.30;;;21.80;99.90;;;;;;5023689;28;20032;-45
2021/06/11 06:31:39;;;;;;;8.52;7.70;;;22.00;99.90;;;;;;5091339;28;20069;-45
2021/06/11 06:34:05;;;;;;;8.90;7.78;;;22.00;99.90;;;;;;5091224;28;20110;-45
2021/06/11 06:36:31;;;;;;;12.05;8.93;;;22.10;99.90;;;;;;5090790;28;20028;-45
2021/06/11 06:39:00;;;;;;;9.75;8.73;;;22.20;99.90;;;;;;5091383;28;20040;-45
2021/06/11 06:41:26;;;;;;;11.55;10.07;;;22.40;99.90;;;;;;5091123;28;20128;-45
2021/06/11 06:43:52;;;;;;;10.45;9.18;;;22.40;99.90;;;;;;5090716;28;20065;-45
2021/06/11 06:46:21;;;;;;;13.57;9.15;;;22.30;99.90;;;;;;5074179;28;20040;-45
2021/06/11 06:48:49;;;;;;;9.25;8.35;;;22.20;99.90;;;;;;5058552;28;20040;-45
2021/06/11 06:51:16;;;;;;;8.85;8.00;;;22.40;99.90;;;;;;5073875;28;20197;-45
2021/06/11 06:53:42;;;;;;;8.82;7.53;;;22.40;99.90;;;;;;5091018;28;20114;-45
2021/06/11 06:56:08;;;;;;;12.43;8.02;;;22.40;99.90;;;;;;5109510;28;20161;-45
2021/06/11 06:58:36;;;;;;;9.93;8.32;;;22.40;99.90;;;;;;5093879;28;20051;-45
2021/06/11 07:01:02;;;;;;;9.40;8.50;;;22.20;99.90;;;;;;5113383;28;20118;-45
2021/06/11 07:03:27;;;;;;;11.20;7.82;;;22.10;99.90;;;;;;5113558;28;20053;-45
2021/06/11 07:05:53;;;;;;;9.43;8.43;;;22.30;99.90;;;;;;5113273;28;20028;-45
2021/06/11 07:08:19;;;;;;;10.23;9.23;;;22.50;99.90;;;;;;5114815;28;20028;-45
2021/06/11 07:10:45;;;;;;;11.45;7.65;;;22.50;99.90;;;;;;5113975;28;20498;-45
2021/06/11 07:13:14;;;;;;;10.43;7.35;;;22.60;99.90;;;;;;5010900;28;20040;-44
2021/06/11 07:15:40;;;;;;;8.77;7.88;;;22.60;99.90;;;;;;5113406;28;20034;-45
2021/06/11 07:18:07;;;;;;;8.38;7.43;;;22.70;99.90;;;;;;5117223;28;20130;-45
2021/06/11 07:20:32;;;;;;;9.10;7.85;;;22.70;99.90;;;;;;5116872;28;20039;-45
2021/06/11 07:22:58;;;;;;;13.10;7.45;;;22.90;99.90;;;;;;5107018;28;20032;-45
2021/06/11 07:25:24;;;;;;;8.65;5.32;;;22.80;99.90;;;;;;5105393;28;20096;-45
2021/06/11 07:27:50;;;;;;;7.90;7.10;;;22.60;99.90;;;;;;5114303;28;20358;-45
2021/06/11 07:30:16;;;;;;;7.43;5.18;;;22.90;99.90;;;;;;5084551;28;20370;-45
2021/06/11 07:32:43;;;;;;;9.05;6.38;;;22.80;99.90;;;;;;5060843;28;20394;-45
2021/06/11 07:35:13;;;;;;;9.95;5.80;;;22.90;99.60;;;;;;5097529;28;20028;-45
2021/06/11 07:37:39;;;;;;;7.22;6.53;;;23.00;99.50;;;;;;5068153;28;20036;-45
2021/06/11 07:40:06;;;;;;;8.40;5.78;;;23.00;99.60;;;;;;5056803;28;20053;-45
2021/06/11 07:42:32;;;;;;;8.35;5.90;;;23.10;99.50;;;;;;5046866;28;20031;-45
2021/06/11 07:44:58;;;;;;;8.63;6.60;;;23.20;99.40;;;;;;5084729;28;20028;-45
2021/06/11 07:47:24;;;;;;;6.35;5.75;;;23.00;99.60;;;;;;5071489;28;20051;-45
2021/06/11 07:49:50;;;;;;;6.97;6.07;;;23.10;99.00;;;;;;5056837;28;20491;-45
2021/06/11 07:52:15;;;;;;;9.30;5.93;;;23.20;98.80;;;;;;5057021;28;20059;-45
2021/06/11 07:54:41;;;;;;;6.82;6.13;;;23.20;98.40;;;;;;5073861;28;20387;-45
2021/06/11 07:57:07;;;;;;;8.23;6.95;;;23.30;99.10;;;;;;5023655;28;20036;-45
2021/06/11 07:59:33;;;;;;;8.70;6.90;;;23.40;99.90;;;;;;5024095;28;20048;-47
2021/06/11 08:01:59;;;;;;;7.75;6.35;;;23.50;99.70;;;;;;5073651;28;20702;-45
2021/06/11 08:04:26;;;;;;;8.52;7.63;;;23.30;98.50;;;;;;5056484;28;20040;-45
2021/06/11 08:06:52;;;;;;;7.20;6.60;;;23.40;99.70;;;;;;5081424;28;20031;-45
2021/06/11 08:09:17;;;;;;;7.95;6.40;;;23.60;99.40;;;;;;5036745;28;20413;-45
2021/06/11 08:11:43;;;;;;;8.55;6.90;;;23.70;98.70;;;;;;5096265;28;20486;-45
2021/06/11 08:14:09;;;;;;;8.45;6.75;;;23.70;98.90;;;;;;5099723;28;20020;-47
2021/06/11 08:16:35;;;;;;;9.25;7.30;;;23.80;98.40;;;;;;5090771;28;20028;-47
2021/06/11 08:19:01;;;;;;;10.75;7.88;;;23.80;98.50;;;;;;5096312;28;20528;-43
2021/06/11 08:21:27;;;;;;;8.10;6.80;;;23.90;99.90;;;;;;5083099;28;20036;-46
2021/06/11 08:23:53;;;;;;;8.00;7.18;;;23.90;98.60;;;;;;5098647;28;20084;-45
2021/06/11 08:26:18;;;;;;;9.45;7.20;;;23.90;99.00;;;;;;5075466;28;20048;-46
2021/06/11 08:28:44;;;;;;;8.43;7.18;;;24.10;98.70;;;;;;5069313;28;20040;-46
2021/06/11 08:31:10;;;;;;;9.10;7.07;;;24.10;98.60;;;;;;5105913;28;20040;-45
2021/06/11 08:33:36;;;;;;;7.90;7.03;;;24.30;99.20;;;;;;5076601;28;20115;-47
2021/06/11 08:36:02;;;;;;;8.75;7.90;;;24.50;99.20;;;;;;5110209;28;20139;-46
2021/06/11 08:38:28;;;;;;;9.85;8.00;;;24.70;97.40;;;;;;5095665;28;20065;-45
2021/06/11 08:40:54;;;;;;;9.45;8.52;;;24.70;97.70;;;;;;5095273;28;20036;-45
2021/06/11 08:43:20;;;;;;;10.93;9.05;;;24.90;99.70;;;;;;5093090;28;20040;-46
2021/06/11 08:45:48;;;;;;;8.68;7.88;;;25.00;98.70;;;;;;5095687;28;20071;-46
2021/06/11 08:48:14;;;;;;;9.50;8.50;;;24.80;98.10;;;;;;5076576;28;20487;-45
2021/06/11 08:50:43;;;;;;;10.95;9.40;;;;;;;;;;5094609;28;20035;-47
2021/06/11 08:53:09;;;;;;;10.48;8.95;;;24.80;98.50;;;;;;5093408;28;20617;-45
2021/06/11 08:55:36;;;;;;;9.93;6.38;;;24.60;98.60;;;;;;5095447;28;20411;-45
2021/06/11 08:58:03;;;;;;;10.73;9.63;;;24.50;99.10;;;;;;5094797;28;20028;-47
2021/06/11 09:00:32;;;;;;;10.90;9.48;;;24.70;99.00;;;;;;5095260;28;20032;-46
2021/06/11 09:03:15;;;;;;;13.02;10.35;;;24.90;99.10;;;;;;5095223;28;20102;-46
2021/06/11 09:06:06;;;;;;;10.13;8.63;;;25.00;99.10;;;;;;5094545;28;20051;-45
2021/06/11 09:08:32;;;;;;;9.15;7.68;;;24.80;98.50;;;;;;5094703;28;20031;-46
2021/06/11 09:11:18;;;;;;;13.02;8.52;;;25.10;99.80;;;;;;5094404;28;20080;-46
2021/06/11 09:13:51;;;;;;;10.18;9.13;;;25.20;98.80;;;;;;5094257;28;20115;-45
2021/06/11 09:16:22;;;;;;;14.27;8.68;;;25.30;98.50;;;;;;5094682;28;20032;-46
2021/06/11 09:18:49;;;;;;;11.07;9.32;;;25.20;98.00;;;;;;5105425;28;20505;-45
2021/06/11 09:21:43;;;;;;;9.70;8.07;;;25.40;97.90;;;;;;5058098;28;20203;-46
2021/06/11 09:24:26;;;;;;;11.88;8.00;;;25.60;98.90;;;;;;5092449;28;20467;-46
2021/06/11 09:26:57;;;;;;;7.55;6.03;;;25.90;97.90;;;;;;5092115;28;20106;-45
2021/06/11 09:29:33;;;;;;;10.27;6.55;;;25.70;97.40;;;;;;5092085;28;20072;-46
2021/06/11 09:32:29;;;;;;;8.73;7.03;;;25.50;97.40;;;;;;5058534;28;20051;-46
2021/06/11 09:35:03;;;;;;;7.65;6.55;;;25.80;97.50;;;;;;5091710;28;20027;-46
2021/06/11 09:37:37;;;;;;;10.23;6.50;;;25.90;97.00;;;;;;5092556;28;20035;-46
2021/06/11 09:40:11;;;;;;;7.65;6.53;;;26.00;96.40;;;;;;5074892;28;20040;-46
2021/06/11 09:42:40;;;;;;;9.45;6.78;;;26.30;97.10;;;;;;5091159;28;20032;-46
2021/06/11 09:45:08;;;;;;;7.88;6.32;;;26.20;96.90;;;;;;5092164;28;20376;-46
2021/06/11 09:47:40;;;;;;;9.80;7.30;;;26.40;96.30;;;;;;5041756;28;20125;-47
2021/06/11 09:50:18;;;;;;;10.57;8.25;;;26.60;96.50;;;;;;5092151;28;20020;-46
2021/06/11 09:52:52;;;;;;;8.48;6.32;;;26.50;96.30;;;;;;5066718;28;20038;-46
2021/06/11 09:55:37;;;;;;;10.32;6.85;;;27.00;97.70;;;;;;5095216;28;20042;-45
2021/06/11 09:58:06;;;;;;;8.90;6.72;;;26.50;95.80;;;;;;5095593;28;20171;-46
2021/06/11 10:00:33;;;;;;;11.93;7.20;;;26.50;95.30;;;;;;5095349;28;20046;-45
2021/06/11 10:03:00;;;;;;;11.85;9.40;;;27.00;96.40;;;;;;5114012;28;20024;-46
2021/06/11 10:05:29;;;;;;;7.25;6.10;;;26.80;95.00;;;;;;5114640;28;20150;-45
2021/06/11 10:07:55;;;;;;;10.55;8.38;;;26.60;96.50;;;;;;5114414;28;20031;-45
2021/06/11 10:10:22;;;;;;;5.63;5.13;;;26.10;96.00;;;;;;5108981;28;20026;-46
2021/06/11 10:12:48;;;;;;;8.95;7.03;;;25.90;95.30;;;;;;5102885;28;20135;-46
2021/06/11 10:15:15;;;;;;;6.40;5.65;;;25.90;95.60;;;;;;5104712;28;20038;-45
2021/06/11 10:17:44;;;;;;;8.43;7.28;;;26.30;96.30;;;;;;5102433;28;20039;-46
2021/06/11 10:20:13;;;;;;;6.75;5.88;;;26.90;96.40;;;;;;5051531;28;20044;-46
2021/06/11 10:22:39;;;;;;;6.03;4.90;;;26.80;95.10;;;;;;5098186;28;20036;-47
2021/06/11 10:25:08;;;;;;;7.40;4.53;;;26.60;94.40;;;;;;5091105;28;20050;-44
2021/06/11 10:27:36;;;;;;;11.48;8.65;;;26.40;94.60;;;;;;5026272;28;20093;-45
2021/06/11 10:30:03;;;;;;;9.40;5.85;;;26.40;95.00;;;;;;5094935;28;20038;-45
2021/06/11 10:32:29;;;;;;;7.82;7.00;;;26.00;95.70;;;;;;5068208;28;20417;-44
2021/06/11 10:34:56;;;;;;;7.82;6.20;;;25.20;96.10;;;;;;5101548;28;20070;-44
2021/06/11 10:37:38;;;;;;;10.50;5.88;;;25.00;96.60;;;;;;5101290;28;20393;-45
2021/06/11 10:40:30;;;;;;;5.90;4.78;;;24.80;96.60;;;;;;5099847;28;20082;-44
2021/06/11 10:43:22;;;;;;;6.47;5.68;;;24.60;95.00;;;;;;5100930;28;20035;-45
2021/06/11 10:45:49;;;;;;;14.07;8.15;;;;;;;;;;5093073;28;20039;-45
2021/06/11 10:48:16;;;;;;;11.50;7.55;;;23.60;99.80;;;;;;5093121;28;20032;-45
2021/06/11 10:50:42;;;;;;;16.42;9.23;;;23.10;99.90;;;;;;5093496;28;20536;-45
2021/06/11 10:53:10;;;;;;;10.90;7.55;;;22.90;99.90;;;;;;5074351;28;20419;-44
2021/06/11 10:56:00;;;;;;;10.48;6.88;;;23.00;99.90;;;;;;5104663;28;20352;-45
2021/06/11 10:58:27;;;;;;;7.25;6.25;;;22.70;99.90;;;;;;5103870;28;20635;-46
2021/06/11 11:00:53;;;;;;;10.68;7.47;;;22.30;99.90;;;;;;5079464;28;20036;-44
2021/06/11 11:03:30;;;;;;;10.23;8.23;;;22.30;99.90;;;;;;5105463;28;20032;-44
2021/06/11 11:05:57;;;;;;;9.23;6.82;;;22.40;99.90;;;;;;5113434;28;20050;-44
2021/06/11 11:08:42;;;;;;;6.88;6.13;;;22.50;99.90;;;;;;5094692;28;20378;-44
2021/06/11 11:11:29;;;;;;;11.95;7.70;;;22.50;99.90;;;;;;5113412;28;20059;-44
2021/06/11 11:13:55;;;;;;;12.13;8.88;;;22.50;99.90;;;;;;5109988;28;20028;-46
2021/06/11 11:16:26;;;;;;;9.77;6.80;;;22.50;99.90;;;;;;5065003;28;20139;-44
2021/06/11 11:18:52;;;;;;;6.60;5.63;;;22.90;99.90;;;;;;5106594;28;20084;-44
2021/06/11 11:21:31;;;;;;;13.88;7.07;;;23.20;99.80;;;;;;5100798;28;20124;-43
2021/06/11 11:24:11;;;;;;;7.07;5.53;;;23.30;99.50;;;;;;5092830;28;20066;-43
2021/06/11 11:26:44;;;;;;;6.68;4.43;;;23.40;99.00;;;;;;5099162;28;20028;-46
2021/06/11 11:29:12;;;;;;;5.03;3.92;;;23.50;97.10;;;;;;5074236;28;20086;-43
2021/06/11 11:31:39;;;;;;;4.38;3.97;;;23.60;97.20;;;;;;5091231;28;20032;-43
2021/06/11 11:34:05;;;;;;;4.78;3.70;;;23.60;96.90;;;;;;5102674;28;20111;-44
2021/06/11 11:36:33;;;;;;;6.72;4.05;;;23.70;96.00;;;;;;5099533;28;20176;-43
2021/06/11 11:38:59;;;;;;;6.95;3.80;;;23.90;96.80;;;;;;5080580;28;20036;-43
2021/06/11 11:41:25;;;;;;;4.05;3.60;;;24.00;96.20;;;;;;5027901;28;20048;-43
2021/06/11 11:43:51;;;;;;;6.95;3.97;;;24.10;95.40;;;;;;5059574;28;20368;-43
2021/06/11 11:46:18;;;;;;;8.25;3.40;;;24.30;96.00;;;;;;5069604;28;20036;-46
2021/06/11 11:48:43;;;;;;;4.40;3.10;;;24.50;95.80;;;;;;5069206;28;20139;-45
2021/06/11 11:51:09;;;;;;;4.30;3.47;;;24.50;95.30;;;;;;5036722;28;20044;-46
2021/06/11 11:53:36;;;;;;;8.30;3.33;;;;;;;;;;5053214;28;20051;-45
2021/06/11 11:56:02;;;;;;;5.30;3.67;;;25.00;95.10;;;;;;5055749;28;20047;-49
2021/06/11 11:58:28;;;;;;;7.15;4.30;;;24.80;97.30;;;;;;5040346;28;20396;-45
2021/06/11 12:00:54;;;;;;;6.15;4.55;;;24.00;97.50;;;;;;5056616;28;20059;-45
2021/06/11 12:03:20;;;;;;;7.18;4.78;;;24.10;97.60;;;;;;5040245;28;20036;-43
2021/06/11 12:05:46;;;;;;;8.25;5.15;;;23.70;98.90;;;;;;5073787;28;20042;-43
2021/06/11 12:08:11;;;;;;;6.07;4.70;;;23.60;99.70;;;;;;5073571;28;20057;-43
2021/06/11 12:10:37;;;;;;;8.25;4.47;;;23.90;97.40;;;;;;5090852;28;20043;-43
2021/06/11 12:13:03;;;;;;;7.82;4.60;;;24.30;97.60;;;;;;5077194;28;20032;-42
2021/06/11 12:15:29;;;;;;;6.72;5.97;;;24.40;96.40;;;;;;5109288;28;20053;-44
2021/06/11 12:17:57;;;;;;;6.43;5.00;;;24.40;97.70;;;;;;5096884;28;20532;-43
2021/06/11 12:20:23;;;;;;;5.57;4.45;;;;;;;;;;5116291;28;20048;-46
2021/06/11 12:22:49;;;;;;;5.78;4.30;;;25.50;99.90;;;;;;5097437;28;20431;-45
2021/06/11 12:25:15;;;;;;;7.18;5.25;;;25.60;98.40;;;;;;5115952;28;20027;-45
2021/06/11 12:27:41;;;;;;;4.30;3.90;;;25.00;98.70;;;;;;5115779;28;20115;-45
2021/06/11 12:30:08;;;;;;;5.20;4.32;;;24.80;97.60;;;;;;5109275;28;20378;-44
2021/06/11 12:32:33;;;;;;;6.13;4.40;;;24.10;99.90;;;;;;5054166;28;20565;-48
2021/06/11 12:34:59;;;;;;;5.25;4.20;;;24.30;99.90;;;;;;5103538;28;20404;-45
2021/06/11 12:37:25;;;;;;;5.72;4.03;;;23.70;96.10;;;;;;5099413;28;20469;-44
2021/06/11 12:39:53;;;;;;;4.88;3.47;;;23.30;97.60;;;;;;5111734;28;20485;-43
2021/06/11 12:42:22;;;;;;;4.63;4.07;;;23.30;98.20;;;;;;5083153;28;20524;-44
2021/06/11 12:44:47;;;;;;;5.68;3.58;;;23.30;97.80;;;;;;5095353;28;20024;-44
2021/06/11 12:47:14;;;;;;;6.75;3.97;;;23.30;96.80;;;;;;5093179;28;20398;-44